Time;durP1;ratioP1;P1;durP2;ratioP2;P2;SDS_P1;SDS_P2;PMS_P1;PMS_P2;Temp;Humidity;BMP_temperature;BMP_pressure;BME280_temperature;BME280_humidity;BME280_pressure;Samples;Min_cycle;Max_cycle;Signal;HPM_P1;HPM_P2
2023/12/08 00:00:09;;;;;;;8.00;5.33;;;;;;;6.13;49.14;100343.78;674040;29;1625;-87
2023/12/08 00:00:30;;;;;;;7.95;5.38;;;;;;;6.10;49.18;100330.72;669852;29;1256;-87
2023/12/08 00:00:51;;;;;;;7.72;4.97;;;;;;;6.13;48.91;100343.78;667848;29;1607;-87
2023/12/08 00:01:15;;;;;;;8.35;5.07;;;;;;;6.18;49.08;100343.97;669960;29;1546;-86
2023/12/08 00:01:35;;;;;;;9.65;5.10;;;;;;;6.12;48.89;100329.06;667015;29;1267;-87
2023/12/08 00:01:56;;;;;;;10.80;5.60;;;;;;;6.19;48.92;100344.00;671951;29;1105;-87
2023/12/08 00:02:16;;;;;;;10.20;5.70;;;;;;;6.14;49.02;100335.19;673677;29;1443;-88
2023/12/08 00:02:38;;;;;;;10.50;5.60;;;;;;;6.14;48.90;100333.47;674622;29;1197;-87
2023/12/08 00:02:58;;;;;;;9.43;5.10;;;;;;;6.16;48.81;100337.00;674854;29;1175;-86
2023/12/08 00:03:19;;;;;;;8.63;4.73;;;;;;;6.16;48.62;100330.97;672475;29;1534;-87
2023/12/08 00:03:40;;;;;;;8.50;5.03;;;;;;;6.19;49.17;100331.06;667607;29;1252;-87
2023/12/08 00:04:01;;;;;;;9.20;5.20;;;;;;;6.18;48.96;100331.03;669728;29;1299;-87
2023/12/08 00:04:22;;;;;;;9.68;5.38;;;;;;;6.17;48.70;100327.53;671898;29;1626;-86
2023/12/08 00:04:42;;;;;;;8.23;5.07;;;;;;;6.19;48.97;100331.06;672212;29;1081;-87
2023/12/08 00:05:03;;;;;;;7.67;4.90;;;;;;;6.16;49.05;100321.47;672633;29;1635;-87
2023/12/08 00:05:24;;;;;;;7.30;5.10;;;;;;;6.16;48.79;100320.59;674735;29;1160;-85
2023/12/08 00:05:44;;;;;;;6.80;5.00;;;;;;;6.20;48.79;100319.88;672183;29;1342;-87
2023/12/08 00:06:07;;;;;;;6.23;5.00;;;;;;;6.23;48.82;100326.88;667113;29;1463;-86
2023/12/08 00:06:27;;;;;;;6.80;5.22;;;;;;;6.21;48.78;100323.34;669483;29;1235;-87
2023/12/08 00:06:48;;;;;;;8.07;5.40;;;;;;;6.20;48.70;100322.47;672143;29;1097;-86
2023/12/08 00:07:08;;;;;;;9.40;5.63;;;;;;;6.22;48.70;100313.06;669507;29;1053;-87
2023/12/08 00:07:29;;;;;;;8.35;5.05;;;;;;;6.26;48.93;100317.53;669516;29;1173;-86
2023/12/08 00:07:49;;;;;;;6.28;4.55;;;;;;;6.25;49.01;100315.75;669523;29;1518;-86
2023/12/08 00:08:10;;;;;;;6.10;4.33;;;;;;;6.28;48.86;100325.38;670707;29;1059;-87
2023/12/08 00:08:30;;;;;;;5.78;4.30;;;;;;;6.22;48.52;100313.06;669526;29;1001;-87
2023/12/08 00:08:51;;;;;;;6.37;4.30;;;;;;;6.23;48.80;100309.63;669616;29;1031;-87
2023/12/08 00:09:12;;;;;;;6.15;4.45;;;;;;;6.30;48.35;100324.59;673680;29;1675;-87
2023/12/08 00:09:33;;;;;;;8.40;4.67;;;;;;;6.29;48.75;100328.03;677129;29;1195;-86
2023/12/08 00:09:53;;;;;;;7.53;4.50;;;;;;;6.21;48.38;100313.88;675454;29;1394;-86
2023/12/08 00:10:14;;;;;;;9.40;5.00;;;;;;;6.23;48.78;100317.41;674006;29;1478;-87
2023/12/08 00:10:35;;;;;;;7.37;4.80;;;;;;;6.28;48.76;100336.59;674874;29;1106;-87
2023/12/08 00:10:55;;;;;;;7.75;5.07;;;;;;;6.26;48.39;100321.84;669725;29;1167;-87
2023/12/08 00:11:16;;;;;;;6.07;4.60;;;;;;;6.25;48.40;100315.75;669366;29;1527;-87
2023/12/08 00:11:37;;;;;;;10.13;4.80;;;;;;;6.21;48.68;100316.47;664613;29;1041;-87
2023/12/08 00:11:58;;;;;;;9.75;4.53;;;;;;;6.21;48.77;100310.41;672300;29;1351;-87
2023/12/08 00:12:18;;;;;;;10.63;4.65;;;;;;;6.24;48.62;100315.69;671994;29;1423;-87
2023/12/08 00:12:39;;;;;;;7.80;4.70;;;;;;;6.29;48.43;100319.34;664669;29;1178;-88
2023/12/08 00:12:59;;;;;;;8.05;4.80;;;;;;;6.24;48.69;100314.00;669632;29;1171;-87
2023/12/08 00:13:20;;;;;;;7.30;4.60;;;;;;;6.23;48.52;100319.09;666639;29;1579;-87
2023/12/08 00:13:41;;;;;;;6.30;4.57;;;;;;;6.26;48.38;100319.25;669593;29;1260;-86
2023/12/08 00:14:02;;;;;;;7.07;4.72;;;;;;;6.23;48.40;100312.22;667363;29;1179;-86
2023/12/08 00:14:23;;;;;;;10.47;5.30;;;;;;;6.25;48.52;100315.75;666902;29;1491;-86
2023/12/08 00:14:44;;;;;;;10.35;5.07;;;;;;;6.23;48.63;100306.16;669635;29;1074;-87
2023/12/08 00:15:05;;;;;;;9.27;5.03;;;;;;;6.24;48.46;100308.81;672308;29;1696;-87
2023/12/08 00:15:26;;;;;;;6.35;4.43;;;;;;;6.20;48.28;100299.13;674795;29;1004;-86
2023/12/08 00:15:47;;;;;;;7.75;4.60;;;;;;;6.23;48.45;100307.06;677430;29;976;-87
2023/12/08 00:16:08;;;;;;;10.05;4.72;;;;;;;6.20;48.50;100296.56;676431;29;1568;-86
2023/12/08 00:16:30;;;;;;;9.68;4.75;;;;;;;6.19;48.25;100297.38;674729;29;956;-86
2023/12/08 00:17:13;;;;;;;9.32;4.28;;;;;;;6.23;48.44;100309.63;672136;29;1361;-87
2023/12/08 00:17:33;;;;;;;12.52;4.60;;;;;;;6.23;48.71;100308.75;672750;29;1367;-86
2023/12/08 00:17:54;;;;;;;12.50;5.03;;;;;;;6.23;48.52;100303.56;674523;29;1927;-87
2023/12/08 00:18:14;;;;;;;11.90;4.50;;;;;;;6.21;48.86;100298.34;671362;29;1557;-86
2023/12/08 00:18:35;;;;;;;7.63;4.65;;;;;;;6.22;48.83;100302.69;674631;29;1216;-87
2023/12/08 00:19:14;;;;;;;7.00;4.60;;;;;;;6.29;48.78;100309.88;671813;29;1116;-87
2023/12/08 00:19:35;;;;;;;6.75;4.90;;;;;;;6.23;48.44;100304.47;674563;29;1334;-87
2023/12/08 00:20:03;;;;;;;6.43;4.93;;;;;;;6.23;48.63;100301.88;672309;29;901;-86
2023/12/08 00:20:23;;;;;;;6.95;4.93;;;;;;;6.23;48.21;100301.88;672332;29;1716;-87
2023/12/08 00:20:44;;;;;;;6.43;4.60;;;;;;;6.24;48.62;100303.63;672141;29;1170;-87
2023/12/08 00:21:05;;;;;;;6.78;4.43;;;;;;;6.24;48.70;100308.81;671698;29;1481;-87
2023/12/08 00:21:25;;;;;;;8.80;4.53;;;;;;;6.21;48.63;100298.34;667045;29;1267;-87
2023/12/08 00:21:46;;;;;;;8.65;4.68;;;;;;;6.22;48.31;100305.28;667210;29;1036;-87
2023/12/08 00:22:07;;;;;;;7.50;4.40;;;;;;;6.21;48.54;100303.53;667548;29;1512;-88
2023/12/08 00:22:27;;;;;;;6.20;4.60;;;;;;;6.21;48.32;100308.72;669132;29;1141;-87
2023/12/08 00:27:11;;;;;;;6.00;4.28;;;;;;;6.37;47.82;100315.34;677657;29;705;-86
2023/12/08 00:27:50;;;;;;;7.02;4.18;;;;;;;6.34;47.99;100306.56;677592;29;717;-87
2023/12/08 00:28:17;;;;;;;5.57;3.90;;;;;;;6.31;47.75;100302.16;673276;29;1633;-86
2023/12/08 00:29:26;;;;;;;5.90;3.90;;;;;;;6.36;47.77;100297.13;674672;29;1523;-87
2023/12/08 00:29:47;;;;;;;8.52;4.72;;;;;;;6.28;47.89;100287.34;672525;29;1000;-87
2023/12/08 00:30:08;;;;;;;8.55;4.55;;;;;;;6.30;47.93;100288.31;669858;29;2099;-88
2023/12/08 00:30:29;;;;;;;8.67;4.50;;;;;;;6.32;47.77;100287.50;670413;29;1150;-89
2023/12/08 00:30:50;;;;;;;8.67;4.50;;;;;;;6.29;48.02;100285.66;672548;29;1311;-87
2023/12/08 00:31:10;;;;;;;8.43;4.47;;;;;;;6.28;48.09;100284.75;668794;29;1501;-86
2023/12/08 00:31:31;;;;;;;7.78;4.40;;;;;;;6.31;47.83;100284.00;668553;29;1525;-87
2023/12/08 00:31:51;;;;;;;6.75;4.30;;;;;;;6.28;47.73;100281.31;669053;29;1159;-86
2023/12/08 00:32:12;;;;;;;7.27;4.23;;;;;;;6.30;47.94;100279.66;673661;29;1583;-86
2023/12/08 00:32:33;;;;;;;8.82;4.03;;;;;;;6.31;48.06;100276.22;671704;29;1610;-86
2023/12/08 00:32:54;;;;;;;8.20;3.95;;;;;;;6.28;47.70;100278.72;669316;29;1207;-87
2023/12/08 00:33:15;;;;;;;7.50;4.05;;;;;;;6.32;48.15;100283.19;671010;29;1439;-86
2023/12/08 00:33:35;;;;;;;6.88;4.45;;;;;;;6.30;47.54;100271.88;676483;29;1387;-87
2023/12/08 00:33:56;;;;;;;6.82;4.40;;;;;;;6.37;47.89;100280.75;671620;29;1216;-87
2023/12/08 00:34:18;;;;;;;7.63;4.60;;;;;;;6.32;47.74;100278.00;667205;29;1501;-86
2023/12/08 00:35:57;;;;;;;6.28;4.50;;;;;;;6.35;47.88;100274.63;673312;29;1266;-87
2023/12/08 00:36:18;;;;;;;9.07;4.50;;;;;;;6.34;47.76;100285.84;676946;29;1473;-87
2023/12/08 00:36:40;;;;;;;8.88;4.60;;;;;;;6.35;47.73;100280.72;680069;29;988;-87
2023/12/08 00:37:01;;;;;;;9.93;4.22;;;;;;;6.29;48.08;100271.00;673864;29;1189;-87
2023/12/08 00:37:22;;;;;;;8.80;4.33;;;;;;;6.29;47.85;100273.59;674532;29;1486;-87
2023/12/08 00:37:43;;;;;;;10.40;4.30;;;;;;;6.34;47.63;100278.94;670086;29;1074;-86
2023/12/08 00:38:03;;;;;;;8.35;4.30;;;;;;;6.30;47.73;100271.88;671133;29;1998;-86
2023/12/08 00:38:24;;;;;;;7.50;4.00;;;;;;;6.33;47.58;100277.19;673932;29;1576;-86
2023/12/08 00:38:44;;;;;;;5.90;4.00;;;;;;;6.37;47.86;100273.88;667061;29;1160;-87
2023/12/08 00:39:05;;;;;;;6.05;4.28;;;;;;;6.39;47.51;100281.72;667311;29;1013;-87
2023/12/08 00:39:26;;;;;;;6.65;4.40;;;;;;;6.34;47.41;100278.06;667305;29;1240;-87
2023/12/08 00:39:46;;;;;;;7.40;4.77;;;;;;;6.34;47.76;100270.28;672022;29;1309;-86
2023/12/08 00:40:08;;;;;;;8.00;5.03;;;;;;;6.34;47.69;100272.88;672567;29;1493;-86
2023/12/08 00:40:28;;;;;;;8.40;4.75;;;;;;;6.36;47.89;100276.41;672177;29;1362;-87
2023/12/08 00:40:50;;;;;;;7.43;4.53;;;;;;;6.36;47.42;100266.03;672188;29;1293;-86
2023/12/08 00:41:54;;;;;;;7.32;4.50;;;;;;;6.39;47.85;100276.53;667340;29;1488;-87
2023/12/08 00:42:14;;;;;;;6.13;4.30;;;;;;;6.39;47.69;100271.34;666970;29;1564;-87
2023/12/08 00:42:35;;;;;;;5.82;4.15;;;;;;;6.36;47.85;100266.03;668879;29;1254;-87
2023/12/08 00:42:56;;;;;;;5.72;4.38;;;;;;;6.39;47.44;100269.63;671902;29;1389;-86
2023/12/08 00:43:17;;;;;;;6.20;4.20;;;;;;;6.40;47.56;100271.38;668043;29;1461;-86
2023/12/08 00:43:37;;;;;;;6.30;4.40;;;;;;;6.42;47.37;100268.84;666420;29;1640;-87
2023/12/08 00:43:58;;;;;;;5.93;4.25;;;;;;;6.42;47.35;100268.84;666876;29;1224;-87
2023/12/08 00:44:18;;;;;;;6.25;4.20;;;;;;;6.37;47.57;100255.72;669283;29;1550;-87
2023/12/08 00:44:39;;;;;;;7.70;4.20;;;;;;;6.35;47.62;100251.31;669849;29;1116;-86
2023/12/08 00:45:00;;;;;;;8.70;4.50;;;;;;;6.38;47.43;100254.03;671845;29;1165;-86
2023/12/08 00:45:21;;;;;;;7.93;4.50;;;;;;;6.40;47.35;100252.38;670019;29;1649;-87
2023/12/08 00:45:42;;;;;;;6.65;4.10;;;;;;;6.41;47.47;100248.94;671727;29;1284;-86
2023/12/08 00:46:03;;;;;;;6.90;3.83;;;;;;;6.38;47.57;100243.66;671809;29;1427;-87
2023/12/08 00:46:24;;;;;;;9.65;4.22;;;;;;;6.35;47.57;100243.53;671877;29;1603;-86
2023/12/08 00:46:44;;;;;;;9.25;4.68;;;;;;;6.45;47.30;100250.84;669644;29;1287;-87
2023/12/08 00:47:05;;;;;;;8.48;4.63;;;;;;;6.39;47.70;100241.09;673775;29;1269;-87
2023/12/08 00:47:25;;;;;;;5.63;4.40;;;;;;;6.34;47.64;100231.41;669617;29;1121;-87
2023/12/08 00:47:46;;;;;;;5.68;4.38;;;;;;;6.38;47.35;100244.53;669725;29;1150;-87
2023/12/08 00:48:07;;;;;;;7.20;4.47;;;;;;;6.37;47.34;100235.00;668945;29;1603;-86
2023/12/08 00:48:27;;;;;;;7.70;4.40;;;;;;;6.40;47.32;100239.41;667656;29;1149;-86
2023/12/08 00:48:48;;;;;;;7.10;4.10;;;;;;;6.40;47.21;100242.00;665416;29;1464;-87
2023/12/08 00:49:09;;;;;;;7.03;4.40;;;;;;;6.34;47.30;100236.59;671251;29;1527;-85
2023/12/08 00:49:29;;;;;;;7.60;4.23;;;;;;;6.31;47.50;100232.16;668778;29;1205;-86
2023/12/08 00:49:50;;;;;;;8.30;4.53;;;;;;;6.37;47.58;100247.06;673330;29;1008;-87
2023/12/08 00:50:10;;;;;;;8.95;4.50;;;;;;;6.39;47.39;100256.66;676356;29;1553;-87
2023/12/08 00:50:31;;;;;;;7.97;4.67;;;;;;;6.42;47.27;100255.91;671932;29;1335;-86
2023/12/08 00:50:52;;;;;;;9.00;4.77;;;;;;;6.38;47.30;100241.06;672138;29;1080;-87
2023/12/08 00:51:13;;;;;;;8.55;4.90;;;;;;;6.45;47.44;100258.63;669293;29;1456;-87
2023/12/08 00:51:33;;;;;;;9.43;4.80;;;;;;;6.46;47.36;100267.25;666394;29;1292;-86
2023/12/08 00:51:54;;;;;;;10.23;4.35;;;;;;;6.46;47.35;100262.06;671484;29;1716;-87
2023/12/08 00:52:15;;;;;;;9.50;4.10;;;;;;;6.47;47.48;100264.72;668136;29;1471;-87
2023/12/08 00:52:36;;;;;;;7.60;4.17;;;;;;;6.46;47.37;100257.78;671589;29;1231;-87
2023/12/08 00:52:56;;;;;;;9.85;4.30;;;;;;;6.47;47.35;100261.25;671904;29;1538;-87
2023/12/08 00:53:17;;;;;;;10.85;4.60;;;;;;;6.49;47.35;100268.25;671985;29;1562;-87
2023/12/08 00:53:37;;;;;;;10.57;4.72;;;;;;;6.47;47.20;100267.31;670614;29;1266;-87
2023/12/08 00:53:58;;;;;;;7.50;4.70;;;;;;;6.44;47.28;100259.41;666921;29;1217;-87
2023/12/08 00:54:19;;;;;;;7.07;4.40;;;;;;;6.55;47.11;100262.41;670643;29;1450;-87
2023/12/08 00:54:39;;;;;;;7.75;4.28;;;;;;;6.51;47.27;100256.22;672065;29;1614;-87
2023/12/08 00:55:00;;;;;;;8.30;4.33;;;;;;;6.61;46.98;100265.22;669526;29;1172;-87
2023/12/08 00:55:21;;;;;;;8.43;4.40;;;;;;;6.56;46.95;100254.69;673657;29;1463;-86
2023/12/08 00:55:41;;;;;;;7.63;4.53;;;;;;;6.61;46.93;100256.56;671937;29;1297;-86
2023/12/08 00:56:02;;;;;;;7.95;5.00;;;;;;;6.58;46.77;100247.84;672127;29;1110;-87
2023/12/08 00:56:22;;;;;;;6.87;4.63;;;;;;;6.58;46.90;100250.44;671444;29;1630;-87
2023/12/08 00:56:43;;;;;;;6.75;4.82;;;;;;;6.64;46.87;100259.28;672060;29;1363;-87
2023/12/08 00:57:04;;;;;;;7.13;4.72;;;;;;;6.66;47.15;100257.59;672076;29;1292;-87
2023/12/08 00:57:24;;;;;;;9.10;5.30;;;;;;;6.62;46.58;100253.16;669382;29;1606;-86
2023/12/08 00:57:45;;;;;;;10.07;5.05;;;;;;;6.64;46.70;100252.38;669355;29;1283;-87
2023/12/08 00:58:06;;;;;;;9.65;4.75;;;;;;;6.69;46.58;100256.00;674728;29;1923;-87
2023/12/08 00:58:26;;;;;;;7.88;4.32;;;;;;;6.67;46.76;100254.19;672193;29;1457;-87
2023/12/08 00:58:47;;;;;;;6.47;4.45;;;;;;;6.67;47.03;100247.31;672387;29;981;-86
2023/12/08 00:59:08;;;;;;;7.47;4.83;;;;;;;6.66;46.73;100249.84;672240;29;1459;-86
2023/12/08 00:59:29;;;;;;;7.78;4.80;;;;;;;6.58;46.57;100247.84;672459;29;1025;-87
2023/12/08 00:59:49;;;;;;;7.72;4.72;;;;;;;6.60;46.74;100260.88;671965;29;1197;-87
2023/12/08 01:00:10;;;;;;;7.23;4.50;;;;;;;6.59;46.70;100248.75;672270;29;1488;-87
2023/12/08 01:00:31;;;;;;;6.63;4.35;;;;;;;6.60;46.84;100260.88;671800;29;1262;-86
2023/12/08 01:00:52;;;;;;;6.72;4.70;;;;;;;6.60;46.61;100254.78;669841;29;1188;-87
2023/12/08 01:01:13;;;;;;;6.55;4.35;;;;;;;6.58;46.96;100258.22;671947;29;1422;-87
2023/12/08 01:01:34;;;;;;;6.32;4.35;;;;;;;6.61;46.67;100256.56;669284;29;1128;-87
2023/12/08 01:01:54;;;;;;;5.63;3.90;;;;;;;6.61;46.66;100259.16;666982;29;1166;-87
2023/12/08 01:02:15;;;;;;;6.35;4.07;;;;;;;6.58;46.67;100259.94;668687;29;1456;-87
2023/12/08 01:02:36;;;;;;;6.80;4.10;;;;;;;6.55;46.95;100252.03;666637;29;1183;-87
2023/12/08 01:02:57;;;;;;;6.85;4.30;;;;;;;6.51;46.95;100256.22;666912;29;1215;-87
2023/12/08 01:03:17;;;;;;;6.90;4.55;;;;;;;6.52;46.88;100251.94;671393;29;1474;-87
2023/12/08 01:03:38;;;;;;;7.15;4.50;;;;;;;6.55;47.02;100252.94;676204;29;1168;-87
2023/12/08 01:03:59;;;;;;;6.83;4.63;;;;;;;6.52;46.51;100252.81;672105;29;1109;-86
2023/12/08 01:04:19;;;;;;;6.57;4.50;;;;;;;6.58;46.74;100258.22;669298;29;1481;-87
2023/12/08 01:04:40;;;;;;;7.18;4.80;;;;;;;6.54;47.00;100250.28;671424;29;1161;-86
2023/12/08 01:05:00;;;;;;;7.60;4.60;;;;;;;6.56;46.95;100249.50;672073;29;1363;-87
2023/12/08 01:05:21;;;;;;;7.15;4.45;;;;;;;6.57;46.92;100250.41;670032;29;1594;-87
2023/12/08 01:05:41;;;;;;;6.97;4.60;;;;;;;6.57;46.79;100246.09;668825;29;1306;-86
2023/12/08 01:06:02;;;;;;;7.00;4.70;;;;;;;6.58;46.42;100246.97;673262;29;1370;-87
2023/12/08 01:06:23;;;;;;;7.07;4.40;;;;;;;6.58;46.54;100253.03;668621;29;1493;-87
2023/12/08 01:06:43;;;;;;;7.53;4.32;;;;;;;6.60;46.63;100249.59;669468;29;1191;-87
2023/12/08 01:07:04;;;;;;;7.87;4.23;;;;;;;6.61;46.51;100248.78;666960;29;1184;-86
2023/12/08 01:07:25;;;;;;;9.20;4.90;;;;;;;6.61;46.58;100249.66;671251;29;1463;-87
2023/12/08 01:07:45;;;;;;;7.28;4.50;;;;;;;6.63;46.87;100252.31;671810;29;1251;-87
2023/12/08 01:08:06;;;;;;;7.50;4.50;;;;;;;6.61;46.76;100246.19;670043;29;1192;-87
2023/12/08 01:08:26;;;;;;;7.95;4.20;;;;;;;6.62;46.47;100247.97;669890;29;1088;-87
2023/12/08 01:08:47;;;;;;;8.47;4.17;;;;;;;6.61;46.74;100248.78;674577;29;1226;-87
2023/12/08 01:09:07;;;;;;;7.80;4.20;;;;;;;6.61;46.34;100251.38;671937;29;1526;-86
2023/12/08 01:09:28;;;;;;;7.18;4.40;;;;;;;6.61;46.76;100256.56;666513;29;1595;-86
2023/12/08 01:09:48;;;;;;;7.60;4.67;;;;;;;6.56;46.61;100244.31;664467;29;1005;-87
2023/12/08 01:10:09;;;;;;;8.32;5.10;;;;;;;6.62;46.76;100250.56;666797;29;1464;-86
2023/12/08 01:10:29;;;;;;;8.85;5.22;;;;;;;6.60;46.73;100250.50;666687;29;1233;-86
2023/12/08 01:10:50;;;;;;;7.97;5.30;;;;;;;6.63;46.57;100257.50;666912;29;1264;-86
2023/12/08 01:11:10;;;;;;;6.60;4.63;;;;;;;6.63;46.42;100254.91;666915;29;1504;-87
2023/12/08 01:11:31;;;;;;;5.57;4.37;;;;;;;6.62;46.29;100256.63;666319;29;1189;-87
2023/12/08 01:11:52;;;;;;;6.35;4.20;;;;;;;6.64;46.15;100254.09;666976;29;1208;-87
2023/12/08 01:12:12;;;;;;;7.32;4.32;;;;;;;6.64;46.59;100256.69;666761;29;1448;-87
2023/12/08 01:12:33;;;;;;;6.90;4.40;;;;;;;6.62;46.55;100253.16;671919;29;1222;-87
2023/12/08 01:12:54;;;;;;;7.20;4.60;;;;;;;6.62;46.31;100259.22;672103;29;981;-87
2023/12/08 01:13:14;;;;;;;7.20;4.80;;;;;;;6.58;46.72;100254.75;671888;29;1609;-87
2023/12/08 01:13:35;;;;;;;7.90;4.75;;;;;;;6.55;46.51;100262.41;671722;29;1379;-87
2023/12/08 01:13:55;;;;;;;7.67;4.77;;;;;;;6.53;46.69;100248.50;669099;29;1218;-87
2023/12/08 01:14:16;;;;;;;8.38;4.95;;;;;;;6.60;46.79;100254.78;673144;29;1460;-87
2023/12/08 01:14:37;;;;;;;7.97;5.13;;;;;;;6.61;46.16;100257.44;669526;29;987;-87
2023/12/08 01:14:57;;;;;;;6.67;4.70;;;;;;;6.57;46.78;100248.69;672170;29;951;-87
2023/12/08 01:15:18;;;;;;;7.25;4.63;;;;;;;6.62;46.10;100259.22;671840;29;1641;-87
2023/12/08 01:15:39;;;;;;;7.88;4.75;;;;;;;6.63;46.66;100252.31;674515;29;891;-87
2023/12/08 01:16:00;;;;;;;7.90;4.80;;;;;;;6.62;46.59;100253.16;674838;29;1289;-86
2023/12/08 01:16:20;;;;;;;7.50;4.78;;;;;;;6.60;46.40;100253.09;670681;29;1482;-86
2023/12/08 01:16:41;;;;;;;7.83;5.20;;;;;;;6.65;46.31;100258.44;669920;29;785;-87
2023/12/08 01:17:02;;;;;;;8.98;5.30;;;;;;;6.63;46.79;100262.69;666785;29;1427;-87
2023/12/08 01:17:22;;;;;;;8.97;5.13;;;;;;;6.58;46.80;100247.84;668716;29;1547;-87
2023/12/08 01:17:43;;;;;;;7.22;4.40;;;;;;;6.58;46.64;100245.25;666949;29;1127;-87
2023/12/08 01:18:04;;;;;;;6.20;4.27;;;;;;;6.60;46.60;100249.59;667897;29;1923;-87
2023/12/08 01:18:24;;;;;;;5.60;3.97;;;;;;;6.57;46.67;100240.91;668786;29;1483;-86
2023/12/08 01:18:45;;;;;;;6.35;4.15;;;;;;;6.61;46.40;100251.38;671459;29;1299;-86
2023/12/08 01:19:08;;;;;;;5.95;4.30;;;;;;;6.55;46.84;100236.47;669587;29;1233;-87
2023/12/08 01:19:28;;;;;;;6.15;4.47;;;;;;;6.58;46.53;100242.66;669362;29;1056;-88
2023/12/08 01:19:49;;;;;;;6.37;4.50;;;;;;;6.62;46.26;100238.47;670558;29;1136;-87
2023/12/08 01:20:10;;;;;;;7.05;4.50;;;;;;;6.60;46.25;100244.41;669141;29;1164;-86
2023/12/08 01:20:31;;;;;;;7.13;4.65;;;;;;;6.63;46.49;100249.75;669214;29;1278;-86
2023/12/08 01:20:51;;;;;;;7.22;4.80;;;;;;;6.63;46.58;100240.22;669642;29;1024;-88
2023/12/08 01:21:12;;;;;;;7.80;4.53;;;;;;;6.65;46.50;100245.47;667941;29;1583;-87
2023/12/08 01:21:32;;;;;;;8.23;4.80;;;;;;;6.65;46.59;100237.69;671830;29;1139;-86
2023/12/08 01:21:53;;;;;;;8.00;4.63;;;;;;;6.63;46.44;100239.38;671851;29;1273;-87
2023/12/08 01:22:15;;;;;;;6.30;4.53;;;;;;;6.68;46.42;100253.34;671783;29;1559;-87
2023/12/08 01:22:35;;;;;;;5.80;4.45;;;;;;;6.66;46.13;100244.66;672877;29;1661;-87
2023/12/08 01:22:56;;;;;;;6.90;4.60;;;;;;;6.62;46.13;100240.19;669461;29;1402;-87
2023/12/08 01:23:17;;;;;;;8.07;4.70;;;;;;;6.58;46.40;100236.63;667496;29;1471;-87
2023/12/08 01:23:37;;;;;;;8.33;4.50;;;;;;;6.63;46.26;100234.19;669517;29;1017;-87
2023/12/08 01:23:58;;;;;;;7.75;4.50;;;;;;;6.61;46.24;100234.13;669895;29;1157;-87
2023/12/08 01:24:18;;;;;;;9.60;4.65;;;;;;;6.64;46.22;100242.00;670254;29;1538;-86
2023/12/08 01:24:39;;;;;;;9.43;4.60;;;;;;;6.62;46.17;100237.59;669498;29;1100;-87
2023/12/08 01:24:59;;;;;;;10.13;4.85;;;;;;;6.66;46.25;100239.47;669062;29;1237;-86
2023/12/08 01:25:20;;;;;;;7.72;4.82;;;;;;;6.63;46.26;100231.59;669090;29;1611;-86
2023/12/08 01:25:41;;;;;;;6.60;4.53;;;;;;;6.65;46.49;100242.88;666798;29;1596;-87
2023/12/08 01:26:05;;;;;;;5.78;4.05;;;;;;;6.57;45.88;100235.72;669441;29;1160;-87
2023/12/08 01:26:25;;;;;;;6.00;4.13;;;;;;;6.66;46.09;100248.13;671644;29;1475;-87
2023/12/08 01:26:46;;;;;;;7.75;4.57;;;;;;;6.66;46.01;100244.66;671518;29;1198;-87
2023/12/08 01:27:07;;;;;;;7.53;4.70;;;;;;;6.60;46.50;100234.94;672184;29;1088;-87
2023/12/08 01:27:27;;;;;;;7.50;4.40;;;;;;;6.60;46.47;100237.53;669149;29;1459;-87
2023/12/08 01:27:48;;;;;;;7.57;4.47;;;;;;;6.62;46.75;100230.69;671682;29;1044;-87
2023/12/08 01:28:08;;;;;;;7.77;4.40;;;;;;;6.57;45.91;100227.06;671336;29;1467;-86
2023/12/08 01:28:29;;;;;;;8.23;4.45;;;;;;;6.60;46.09;100231.47;669355;29;1282;-87
2023/12/08 01:28:49;;;;;;;7.47;4.55;;;;;;;6.65;45.97;100233.41;667040;29;1197;-87
2023/12/08 01:29:11;;;;;;;10.00;4.87;;;;;;;6.67;46.46;100239.53;666792;29;1496;-87
2023/12/08 01:29:32;;;;;;;9.98;5.00;;;;;;;6.70;46.36;100241.34;667226;29;1176;-87
2023/12/08 01:29:52;;;;;;;8.93;4.72;;;;;;;6.66;46.08;100232.56;672036;29;1242;-87
2023/12/08 01:30:13;;;;;;;6.40;4.50;;;;;;;6.66;46.00;100234.28;674320;29;1589;-87
2023/12/08 01:30:33;;;;;;;7.60;4.68;;;;;;;6.67;45.91;100228.25;669306;29;1136;-87
2023/12/08 01:30:54;;;;;;;8.13;4.80;;;;;;;6.69;45.69;100243.03;669696;29;968;-87
2023/12/08 01:31:15;;;;;;;8.23;4.50;;;;;;;6.67;45.84;100228.25;669219;29;1579;-86
2023/12/08 01:31:35;;;;;;;7.23;4.50;;;;;;;6.69;46.03;100237.00;666795;29;1201;-87
2023/12/08 01:31:56;;;;;;;7.17;4.57;;;;;;;6.67;46.12;100236.94;666714;29;1315;-87
2023/12/08 01:32:17;;;;;;;6.20;4.55;;;;;;;6.67;46.06;100231.75;668143;29;1473;-87
2023/12/08 01:32:38;;;;;;;6.93;4.60;;;;;;;6.66;46.26;100223.91;664424;29;1236;-88
2023/12/08 01:32:58;;;;;;;7.20;4.68;;;;;;;6.67;45.87;100228.25;666956;29;1022;-87
2023/12/08 01:33:19;;;;;;;10.47;4.57;;;;;;;6.69;45.96;100244.78;665954;29;1464;-87
2023/12/08 01:33:39;;;;;;;9.20;4.07;;;;;;;6.63;45.99;100229.00;669787;29;961;-87
2023/12/08 01:34:00;;;;;;;8.98;4.03;;;;;;;6.70;45.90;100246.53;671966;29;1160;-87
2023/12/08 01:34:20;;;;;;;5.60;4.20;;;;;;;6.64;45.96;100231.63;669357;29;1878;-87
2023/12/08 01:34:41;;;;;;;5.38;4.32;;;;;;;6.64;45.74;100233.34;669336;29;1519;-88
2023/12/08 01:35:01;;;;;;;5.20;4.37;;;;;;;6.67;46.12;100241.22;669230;29;1245;-87
2023/12/08 01:35:22;;;;;;;5.95;4.55;;;;;;;6.71;46.00;100243.13;670843;29;1697;-87
2023/12/08 01:36:29;;;;;;;5.75;4.70;;;;;;;6.69;46.22;100243.03;673000;29;1689;-87
2023/12/08 01:36:50;;;;;;;8.48;4.25;;;;;;;6.66;45.93;100239.47;669224;29;1550;-86
2023/12/08 01:37:11;;;;;;;8.38;4.13;;;;;;;6.72;45.88;100247.50;666722;29;1511;-87
2023/12/08 01:37:32;;;;;;;6.60;4.10;;;;;;;6.69;46.08;100234.41;671778;29;1506;-87
2023/12/08 01:37:52;;;;;;;6.60;4.25;;;;;;;6.68;46.04;100228.31;671971;29;1922;-87
2023/12/08 01:38:13;;;;;;;6.30;4.37;;;;;;;6.65;45.89;100232.50;671326;29;1606;-87
2023/12/08 01:38:33;;;;;;;6.28;4.43;;;;;;;6.75;45.88;100244.13;671944;29;1074;-87
2023/12/08 01:38:54;;;;;;;6.53;4.45;;;;;;;6.71;45.69;100225.84;671555;29;1317;-87
2023/12/08 01:39:14;;;;;;;6.37;4.33;;;;;;;6.69;45.73;100219.72;669425;29;1628;-87
2023/12/08 01:39:35;;;;;;;7.60;4.47;;;;;;;6.76;45.90;100227.75;666892;29;1165;-87
2023/12/08 01:44:20;;;;;;;7.22;4.90;;;;;;;6.76;46.15;100222.56;678867;29;701;-87
2023/12/08 01:44:48;;;;;;;7.00;4.80;;;;;;;6.66;45.56;100218.72;671669;29;1305;-87
2023/12/08 01:45:09;;;;;;;7.47;4.78;;;;;;;6.66;45.96;100226.50;669388;29;1191;-87
2023/12/08 01:45:30;;;;;;;6.75;4.70;;;;;;;6.69;46.00;100222.31;668574;29;1162;-87
2023/12/08 01:45:54;;;;;;;6.55;4.60;;;;;;;6.69;45.86;100224.03;666814;29;1215;-87
2023/12/08 01:46:17;;;;;;;5.63;4.28;;;;;;;6.70;46.01;100221.47;667369;29;1583;-87
2023/12/08 01:46:38;;;;;;;7.35;4.30;;;;;;;6.71;45.93;100219.81;674598;29;1117;-87
2023/12/08 01:46:59;;;;;;;7.68;4.25;;;;;;;6.74;45.76;100222.50;672166;29;1114;-88
2023/12/08 01:47:20;;;;;;;8.33;4.33;;;;;;;6.70;45.78;100215.41;669421;29;1458;-87
2023/12/08 01:47:41;;;;;;;6.38;4.22;;;;;;;6.65;45.57;100222.16;669277;29;1171;-87
2023/12/08 01:48:02;;;;;;;7.38;4.38;;;;;;;6.65;45.76;100216.97;664131;29;1262;-87
2023/12/08 01:48:24;;;;;;;9.60;4.55;;;;;;;6.68;45.89;100220.53;668045;29;1472;-87
2023/12/08 01:48:46;;;;;;;10.57;4.63;;;;;;;6.69;46.02;100213.66;670076;29;1366;-87
2023/12/08 01:49:06;;;;;;;7.47;4.47;;;;;;;6.70;45.76;100215.41;669610;29;979;-87
2023/12/08 01:49:27;;;;;;;7.80;4.60;;;;;;;6.73;45.93;100215.53;669055;29;1558;-87
2023/12/08 01:49:49;;;;;;;7.22;4.80;;;;;;;6.72;45.83;100213.78;671987;29;1053;-86
2023/12/08 01:50:12;;;;;;;7.15;4.75;;;;;;;6.67;45.70;100213.59;671233;29;1376;-87
2023/12/08 01:50:33;;;;;;;6.05;4.35;;;;;;;6.73;46.18;100209.50;674046;29;1215;-87
2023/12/08 01:50:55;;;;;;;5.90;4.20;;;;;;;6.73;46.03;100215.53;673893;29;1124;-87
2023/12/08 01:51:17;;;;;;;5.65;4.40;;;;;;;6.78;45.76;100219.19;670924;29;1496;-87
2023/12/08 01:51:37;;;;;;;5.80;4.53;;;;;;;6.77;45.65;100222.63;669245;29;1087;-87
2023/12/08 01:51:58;;;;;;;5.60;4.45;;;;;;;6.76;45.52;100226.00;669476;29;1123;-87
2023/12/08 01:52:23;;;;;;;5.40;4.13;;;;;;;6.81;45.20;100214.09;671577;29;1677;-87
2023/12/08 01:52:44;;;;;;;6.03;4.03;;;;;;;6.74;45.50;100213.84;672438;29;1439;-87
2023/12/08 01:53:06;;;;;;;5.80;3.75;;;;;;;6.81;45.50;100223.59;672063;29;1020;-87
2023/12/08 01:53:27;;;;;;;6.57;3.90;;;;;;;6.74;45.87;100217.31;665079;29;1627;-87
2023/12/08 01:53:47;;;;;;;5.95;3.80;;;;;;;6.74;45.50;100217.31;667098;29;1216;-87
2023/12/08 01:54:08;;;;;;;6.00;4.00;;;;;;;6.73;45.58;100210.34;667111;29;1213;-88